Time;durP1;ratioP1;P1;durP2;ratioP2;P2;SDS_P1;SDS_P2;PMS_P1;PMS_P2;Temp;Humidity;BMP_temperature;BMP_pressure;BME280_temperature;BME280_humidity;BME280_pressure;Samples;Min_cycle;Max_cycle;Signal;HPM_P1;HPM_P2
2023/04/12 00:01:55;;;;;;;7.10;4.10;;;;;;;8.58;68.06;98100.24;105582;1261;75800;-23
2023/04/12 00:04:25;;;;;;;8.10;4.80;;;;;;;8.52;68.01;98098.39;105495;1257;74336;-24
2023/04/12 00:06:54;;;;;;;8.80;4.80;;;;;;;8.45;68.36;98095.27;105377;1262;61970;-23
2023/04/12 00:09:24;;;;;;;7.10;3.20;;;;;;;8.41;69.03;98091.09;105559;1263;61150;-23
2023/04/12 00:11:52;;;;;;;7.20;3.50;;;;;;;8.96;68.36;98087.38;105580;1263;74306;-23
2023/04/12 00:14:21;;;;;;;13.90;6.80;;;;;;;9.56;65.61;98088.18;105252;1258;75780;-23
2023/04/12 00:18:24;;;;;;;19.30;11.90;;;;;;;9.70;66.05;98085.70;102718;1292;600093;-22
2023/04/12 00:20:56;;;;;;;13.80;8.40;;;;;;;9.63;66.94;98083.06;104898;1264;61129;-23
2023/04/12 00:23:27;;;;;;;19.70;8.90;;;;;;;9.45;67.19;98084.02;104902;1271;61661;-23
2023/04/12 00:25:56;;;;;;;19.60;9.10;;;;;;;9.20;68.38;98080.58;105198;1263;73778;-23
2023/04/12 00:28:25;;;;;;;11.70;6.70;;;;;;;8.97;70.37;98076.69;105189;1263;75799;-23
2023/04/12 00:30:54;;;;;;;12.60;6.10;;;;;;;8.75;71.40;98073.46;103454;1263;2253403;-23
2023/04/12 00:33:23;;;;;;;11.30;5.90;;;;;;;8.59;71.72;98073.14;104773;1270;61172;-23
2023/04/12 00:35:52;;;;;;;9.40;5.20;;;;;;;8.48;72.13;98075.14;105154;1263;61694;-23
2023/04/12 00:38:22;;;;;;;5.70;3.30;;;;;;;8.41;72.76;98074.90;105384;1257;73528;-23
2023/04/12 00:40:50;;;;;;;7.10;3.10;;;;;;;8.94;72.79;98075.46;105673;1257;75930;-23
2023/04/12 00:43:19;;;;;;;8.40;4.40;;;;;;;9.55;71.48;98075.08;105666;1257;73122;-23
2023/04/12 00:45:47;;;;;;;8.30;4.20;;;;;;;9.70;70.86;98071.01;105662;1257;61679;-24
2023/04/12 00:48:19;;;;;;;9.20;4.40;;;;;;;9.56;71.57;98072.59;105579;1256;61875;-23
2023/04/12 00:50:50;;;;;;;16.40;6.70;;;;;;;9.37;71.65;98069.00;105588;1257;74724;-23
2023/04/12 00:53:21;;;;;;;9.60;5.60;;;;;;;9.14;73.29;98064.45;105524;1259;75777;-23
2023/04/12 00:55:53;;;;;;;36.70;15.00;;;;;;;8.91;74.00;98062.84;105611;1257;74197;-23
2023/04/12 00:58:25;;;;;;;34.40;14.80;;;;;;;8.61;74.47;98061.02;105440;1262;62005;-23
2023/04/12 01:00:59;;;;;;;33.70;17.40;;;;;;;8.38;75.33;98060.77;105651;1259;61871;-23
2023/04/12 01:03:29;;;;;;;21.70;11.60;;;;;;;8.25;76.19;98055.36;105661;1257;74286;-23
2023/04/12 01:06:28;;;;;;;15.90;8.60;;;;;;;8.60;74.89;98052.68;105688;1257;75848;-22
2023/04/12 01:08:57;;;;;;;19.30;9.90;;;;;;;8.83;73.22;98049.77;105659;1260;74176;-23
2023/04/12 01:11:29;;;;;;;37.70;18.90;;;;;;;8.90;73.62;98046.55;105645;1255;61919;-24
2023/04/12 01:14:02;;;;;;;35.10;17.60;;;;;;;8.81;73.90;98047.66;105561;1259;61181;-23
2023/04/12 01:16:39;;;;;;;26.10;13.30;;;;;;;8.65;74.65;98043.91;105227;1257;73518;-23
2023/04/12 01:19:35;;;;;;;21.00;11.60;;;;;;;8.44;75.43;98045.20;105261;1262;75717;-24
2023/04/12 01:22:41;;;;;;;21.20;8.10;;;;;;;8.12;76.33;98034.35;105525;1262;74201;-23
2023/04/12 01:25:09;;;;;;;14.60;6.90;;;;;;;8.26;76.71;98032.77;105630;1256;63530;-23
2023/04/12 01:27:42;;;;;;;8.70;5.20;;;;;;;8.87;74.53;98035.69;105548;1263;61749;-24
2023/04/12 01:30:13;;;;;;;9.10;5.40;;;;;;;9.16;73.13;98038.08;105459;1257;74540;-24
2023/04/12 01:32:42;;;;;;;10.10;7.00;;;;;;;9.05;73.20;98037.11;105449;1262;74863;-24
2023/04/12 01:35:11;;;;;;;16.90;8.30;;;;;;;8.71;74.40;98029.23;105458;1257;74073;-24
2023/04/12 01:37:42;;;;;;;16.10;8.30;;;;;;;8.41;75.62;98018.02;105412;1263;62005;-24
2023/04/12 01:40:11;;;;;;;16.80;10.90;;;;;;;8.17;76.77;98011.73;105347;1258;62078;-24
2023/04/12 01:42:40;;;;;;;7.00;5.50;;;;;;;8.03;77.77;98012.80;105365;1263;73456;-24
2023/04/12 01:45:10;;;;;;;9.60;6.30;;;;;;;8.42;76.75;98008.05;105376;1258;75835;-24
2023/04/12 01:47:39;;;;;;;9.30;6.00;;;;;;;8.46;76.70;98010.95;105553;1257;73166;-24
2023/04/12 01:50:14;;;;;;;8.00;5.70;;;;;;;8.26;77.09;98007.75;105452;1257;62384;-23
2023/04/12 01:53:12;;;;;;;14.90;6.80;;;;;;;8.18;77.85;98004.94;105414;1262;61637;-24
2023/04/12 01:55:44;;;;;;;17.70;6.60;;;;;;;7.86;79.04;97996.33;105365;1257;74598;-23
2023/04/12 01:58:14;;;;;;;8.60;5.10;;;;;;;7.72;80.15;97994.71;105573;1257;74808;-23
2023/04/12 02:00:42;;;;;;;12.20;7.00;;;;;;;8.10;79.36;97998.02;105284;1258;74195;-24
2023/04/12 02:03:13;;;;;;;6.90;5.10;;;;;;;8.24;78.08;98000.59;105568;1257;61545;-24
2023/04/12 02:05:42;;;;;;;10.80;6.60;;;;;;;8.13;78.66;98001.73;105408;1257;61852;-23
2023/04/12 02:08:11;;;;;;;9.60;6.00;;;;;;;7.92;79.80;97999.76;105553;1263;74482;-24
2023/04/12 02:10:40;;;;;;;13.00;6.70;;;;;;;7.83;80.41;97996.27;105624;1258;75805;-24
2023/04/12 02:13:10;;;;;;;12.90;4.90;;;;;;;7.65;81.63;97991.36;105613;1257;74227;-23
2023/04/12 02:15:39;;;;;;;8.10;5.40;;;;;;;8.00;80.70;97989.06;105406;1262;61749;-24
2023/04/12 02:18:10;;;;;;;12.30;6.90;;;;;;;8.18;79.82;97989.05;105194;1257;62564;-24
2023/04/12 02:20:42;;;;;;;9.10;5.30;;;;;;;8.00;80.20;97985.13;105177;1257;74554;-23
2023/04/12 02:23:11;;;;;;;7.30;5.40;;;;;;;7.69;81.32;97979.27;105578;1258;74823;-24
2023/04/12 02:25:40;;;;;;;14.70;9.00;;;;;;;7.62;82.45;97978.89;105656;1257;74362;-23
2023/04/12 02:28:09;;;;;;;5.60;4.30;;;;;;;7.53;83.18;97980.67;105653;1263;62285;-24
2023/04/12 02:30:44;;;;;;;8.40;5.70;;;;;;;7.85;82.29;97978.65;105550;1263;62286;-23
2023/04/12 02:33:14;;;;;;;10.50;5.40;;;;;;;7.82;82.14;97975.40;105437;1258;73581;-22
2023/04/12 02:35:43;;;;;;;12.70;6.10;;;;;;;7.74;82.90;97970.92;105364;1264;75804;-22
2023/04/12 02:38:13;;;;;;;9.30;6.10;;;;;;;7.53;83.55;97968.56;105542;1257;74098;-22
2023/04/12 02:40:42;;;;;;;9.20;5.70;;;;;;;7.38;84.69;97969.84;105616;1257;62378;-22
2023/04/12 02:43:18;;;;;;;26.10;12.10;;;;;;;7.57;83.88;97963.57;105540;1262;62042;-22
2023/04/12 02:45:50;;;;;;;40.10;15.50;;;;;;;7.65;83.36;97960.98;105561;1257;74630;-23
2023/04/12 02:48:19;;;;;;;18.40;9.70;;;;;;;7.43;83.88;97964.92;105488;1263;75610;-22
2023/04/12 02:50:48;;;;;;;37.10;17.10;;;;;;;7.26;84.94;97961.05;105429;1259;74285;-23
2023/04/12 02:53:21;;;;;;;22.20;10.20;;;;;;;7.20;85.96;97961.20;105427;1259;63248;-23
2023/04/12 02:56:00;;;;;;;24.10;12.00;;;;;;;7.47;84.65;97957.73;105649;1258;61928;-22
2023/04/12 02:58:29;;;;;;;27.70;12.40;;;;;;;7.61;84.01;97957.50;105882;1254;74335;-22
2023/04/12 03:01:06;;;;;;;19.40;9.70;;;;;;;7.23;85.01;97949.66;105846;1260;74935;-22
2023/04/12 03:03:47;;;;;;;36.60;17.30;;;;;;;7.14;86.11;97954.91;105735;1254;74114;-22
2023/04/12 03:06:30;;;;;;;56.40;22.80;;;;;;;7.17;86.32;97956.73;105844;1254;63727;-22
2023/04/12 03:09:00;;;;;;;189.20;103.40;;;;;;;7.53;84.81;97948.87;105903;1257;62021;-22
2023/04/12 03:11:30;;;;;;;29.20;14.90;;;;;;;7.34;85.29;97947.34;105911;1254;74530;-22
2023/04/12 03:14:02;;;;;;;;;;;;;;;7.26;86.01;97946.15;105718;1261;75627;-22
2023/04/12 03:16:34;;;;;;;10.90;6.60;;;;;;;7.12;86.77;97944.76;105900;1254;73279;-22
2023/04/12 03:19:08;;;;;;;16.20;9.10;;;;;;;7.17;86.84;97942.77;105830;1258;61936;-22
2023/04/12 03:21:37;;;;;;;14.60;8.80;;;;;;;7.34;86.10;97940.50;105966;1256;61916;-22
2023/04/12 03:24:07;;;;;;;20.40;11.10;;;;;;;7.18;86.53;97934.22;105904;1256;74320;-23
2023/04/12 03:26:35;;;;;;;14.90;8.40;;;;;;;7.09;87.40;97933.08;105851;1254;75873;-23
2023/04/12 03:29:13;;;;;;;21.40;12.90;;;;;;;6.95;88.08;97931.86;105769;1253;74179;-22
2023/04/12 03:31:43;;;;;;;41.70;24.00;;;;;;;7.17;87.84;97937.12;105897;1256;61187;-22
2023/04/12 03:34:12;;;;;;;30.20;20.50;;;;;;;7.29;86.98;97938.17;105822;1253;61838;-22
2023/04/12 03:36:44;;;;;;;15.60;8.50;;;;;;;7.10;87.89;97934.57;105809;1256;74516;-23
2023/04/12 03:39:23;;;;;;;10.60;6.80;;;;;;;6.86;88.81;97936.56;105908;1255;75840;-22
2023/04/12 03:41:52;;;;;;;12.60;6.80;;;;;;;7.02;88.96;97939.16;105772;1254;73233;-22
2023/04/12 03:44:25;;;;;;;8.40;5.70;;;;;;;7.24;87.45;97937.20;105937;1255;61641;-22
2023/04/12 03:46:54;;;;;;;10.10;6.90;;;;;;;7.26;86.78;97930.77;105891;1253;61086;-22
2023/04/12 03:49:24;;;;;;;11.50;7.00;;;;;;;7.16;87.46;97929.90;105738;1263;74513;-22
2023/04/12 03:51:53;;;;;;;10.60;6.10;;;;;;;7.15;87.94;97932.42;105763;1254;75611;-22
2023/04/12 03:54:23;;;;;;;11.00;5.90;;;;;;;7.42;87.01;97935.67;105878;1255;74184;-22
2023/04/12 03:57:04;;;;;;;11.50;6.90;;;;;;;7.47;85.89;97933.31;105878;1254;61846;-22
2023/04/12 03:59:39;;;;;;;15.10;6.90;;;;;;;7.17;87.20;97933.09;105859;1257;61893;-22
2023/04/12 04:02:08;;;;;;;13.40;6.20;;;;;;;7.06;87.99;97940.56;105922;1256;73482;-22
2023/04/12 04:04:41;;;;;;;13.70;9.90;;;;;;;6.82;89.36;97939.46;105803;1258;75758;-22
2023/04/12 04:07:12;;;;;;;57.70;39.10;;;;;;;7.11;89.13;97937.73;105957;1254;74020;-22
2023/04/12 04:09:43;;;;;;;34.10;15.90;;;;;;;7.01;89.39;97935.66;105924;1256;61817;-22
2023/04/12 04:12:12;;;;;;;34.10;14.50;;;;;;;6.88;90.17;97934.52;105922;1257;62372;-22
2023/04/12 04:14:45;;;;;;;37.00;15.40;;;;;;;6.88;90.93;97937.23;105862;1252;73530;-23
2023/04/12 04:17:19;;;;;;;33.40;13.70;;;;;;;7.04;90.54;97938.88;105910;1254;75732;-22
2023/04/12 04:19:54;;;;;;;81.20;31.50;;;;;;;7.15;90.18;97939.98;105873;1253;74007;-22
2023/04/12 04:22:22;;;;;;;39.80;18.40;;;;;;;7.36;89.41;97941.16;105942;1253;61857;-22
2023/04/12 04:24:52;;;;;;;12.70;8.10;;;;;;;6.95;90.33;97934.45;105894;1256;61186;-22
2023/04/12 04:27:21;;;;;;;49.90;18.90;;;;;;;6.67;92.68;97941.58;105838;1256;74585;-22
2023/04/12 04:29:51;;;;;;;29.90;14.30;;;;;;;6.97;91.92;97941.35;105734;1256;74948;-22
2023/04/12 04:32:19;;;;;;;20.80;10.00;;;;;;;6.93;91.54;97935.67;105324;1262;74150;-23
2023/04/12 04:34:59;;;;;;;25.20;13.00;;;;;;;6.81;92.93;97933.55;105639;1256;61807;-23
2023/04/12 04:37:36;;;;;;;47.70;21.20;;;;;;;6.67;93.48;97931.26;105729;1257;61403;-22
2023/04/12 04:40:10;;;;;;;10.50;6.30;;;;;;;7.06;92.43;97927.29;105677;1253;75380;-22
2023/04/12 04:42:41;;;;;;;9.70;6.40;;;;;;;6.96;91.79;97926.06;105664;1258;75793;-23
2023/04/12 04:45:14;;;;;;;30.20;12.10;;;;;;;7.03;92.12;97927.75;105702;1255;73191;-22
2023/04/12 04:47:44;;;;;;;15.50;7.60;;;;;;;6.97;92.45;97924.25;105696;1257;61221;-22
2023/04/12 04:50:18;;;;;;;15.20;6.90;;;;;;;7.10;92.29;97929.22;105826;1259;61566;-22
2023/04/12 04:52:48;;;;;;;24.70;11.20;;;;;;;7.07;91.81;97922.79;105827;1255;75376;-22
2023/04/12 04:55:17;;;;;;;13.30;7.60;;;;;;;7.19;91.71;97920.99;105635;1260;75912;-23
2023/04/12 04:57:47;;;;;;;26.20;17.80;;;;;;;7.06;92.09;97921.47;105893;1256;74085;-22
2023/04/12 05:00:17;;;;;;;110.70;69.20;;;;;;;7.10;92.69;97928.18;105933;1255;62082;-23
2023/04/12 05:02:50;;;;;;;74.20;44.10;;;;;;;7.28;91.79;97925.27;105708;1256;61048;-22
2023/04/12 05:05:29;;;;;;;34.00;23.30;;;;;;;7.41;90.66;97923.98;105740;1256;75515;-23
2023/04/12 05:08:05;;;;;;;32.20;22.70;;;;;;;7.23;91.57;97926.95;105801;1259;75680;-22
2023/04/12 05:10:37;;;;;;;35.50;20.20;;;;;;;6.94;93.35;97927.97;105898;1257;74285;-23
2023/04/12 05:29:40;;;;;;;17.40;13.60;;;;;;;6.72;97.05;97914.27;103616;1282;617313;-22
2023/04/12 05:32:13;;;;;;;27.20;20.60;;;;;;;7.34;94.80;97910.24;105151;1267;61676;-22
2023/04/12 05:34:41;;;;;;;26.10;18.20;;;;;;;7.38;92.98;97909.55;105192;1267;61900;-22
2023/04/12 05:37:09;;;;;;;26.60;17.20;;;;;;;7.32;93.29;97909.23;105198;1273;73905;-22
2023/04/12 05:39:37;;;;;;;12.90;7.50;;;;;;;7.22;93.82;97906.27;104897;1270;74996;-22
2023/04/12 05:42:06;;;;;;;8.30;6.70;;;;;;;7.31;93.88;97907.78;103479;1262;2292491;-23
2023/04/12 05:52:16;;;;;;;36.50;19.20;;;;;;;7.20;94.65;97895.41;102648;1293;599901;-21
2023/04/12 05:54:45;;;;;;;41.40;24.80;;;;;;;7.28;94.76;97893.89;105138;1266;62204;-21
2023/04/12 05:57:17;;;;;;;45.40;22.90;;;;;;;7.55;93.46;97895.48;105073;1266;61065;-22
2023/04/12 05:59:48;;;;;;;65.40;28.50;;;;;;;7.45;93.43;97893.98;105558;1260;73672;-23
2023/04/12 06:02:18;;;;;;;27.70;12.10;;;;;;;7.28;94.68;97889.22;105572;1263;75319;-23
2023/04/12 06:04:48;;;;;;;40.70;24.30;;;;;;;7.41;94.93;97888.59;103917;1257;2242324;-23
2023/04/12 06:07:20;;;;;;;41.00;26.10;;;;;;;7.50;94.02;97881.60;105270;1257;61783;-22
2023/04/12 06:09:49;;;;;;;33.10;21.70;;;;;;;7.51;94.18;97884.14;105684;1256;61100;-22
2023/04/12 06:12:18;;;;;;;30.00;19.10;;;;;;;7.20;95.25;97878.02;105604;1257;73727;-23
2023/04/12 06:14:48;;;;;;;23.20;11.70;;;;;;;7.29;95.80;97881.91;105658;1257;74825;-23
2023/04/12 06:17:17;;;;;;;36.50;16.10;;;;;;;7.42;95.01;97881.96;105677;1257;73989;-22
2023/04/12 06:19:49;;;;;;;40.90;17.90;;;;;;;7.48;94.16;97877.94;105629;1260;61163;-22
2023/04/12 06:22:18;;;;;;;25.30;13.90;;;;;;;7.37;94.59;97881.17;105659;1260;62080;-23
2023/04/12 06:24:47;;;;;;;43.40;19.10;;;;;;;7.22;95.54;97874.34;105631;1260;73665;-23
2023/04/12 06:27:21;;;;;;;41.30;18.90;;;;;;;7.37;95.25;97874.81;105657;1261;75886;-23
2023/04/12 06:29:51;;;;;;;45.10;21.40;;;;;;;7.61;94.78;97872.86;105585;1260;74060;-22
2023/04/12 06:32:20;;;;;;;36.60;20.60;;;;;;;7.64;94.75;97867.23;105581;1257;61843;-23
2023/04/12 06:34:48;;;;;;;10.10;5.70;;;;;;;7.44;94.69;97860.86;105615;1257;61873;-23
2023/04/12 06:37:20;;;;;;;20.50;12.50;;;;;;;7.59;94.53;97859.56;105571;1257;74006;-21
2023/04/12 06:39:49;;;;;;;17.40;12.50;;;;;;;7.65;93.35;97854.17;105608;1261;75779;-21
2023/04/12 06:42:18;;;;;;;20.60;14.70;;;;;;;7.50;93.74;97852.39;105566;1257;74195;-23
2023/04/12 06:44:48;;;;;;;17.50;9.80;;;;;;;7.66;93.91;97850.16;105576;1257;62035;-21
2023/04/12 06:47:17;;;;;;;24.70;10.30;;;;;;;7.68;94.16;97849.67;105639;1259;61484;-22
2023/04/12 06:49:46;;;;;;;42.50;14.60;;;;;;;7.90;92.68;97851.83;105554;1257;74597;-22
2023/04/12 06:52:14;;;;;;;56.10;25.40;;;;;;;8.13;91.75;97853.41;105591;1263;75895;-21
2023/04/12 06:54:46;;;;;;;49.40;25.90;;;;;;;8.13;91.25;97853.42;105637;1256;74245;-21
2023/04/12 06:57:15;;;;;;;26.70;13.70;;;;;;;7.54;92.82;97847.42;105590;1258;61641;-22
2023/04/12 06:59:44;;;;;;;34.70;19.60;;;;;;;7.60;94.37;97847.58;105641;1257;61397;-21
2023/04/12 07:02:13;;;;;;;40.70;21.20;;;;;;;7.70;93.29;97851.52;105674;1257;74354;-21
2023/04/12 07:04:41;;;;;;;57.20;27.90;;;;;;;7.82;92.52;97850.63;105643;1260;75824;-21
2023/04/12 07:07:14;;;;;;;23.00;12.40;;;;;;;7.62;93.68;97849.15;105598;1257;74015;-21
2023/04/12 07:09:49;;;;;;;35.30;14.20;;;;;;;7.48;94.40;97849.45;105326;1262;62094;-23
2023/04/12 07:12:17;;;;;;;53.20;24.60;;;;;;;7.69;94.16;97847.30;105473;1257;61120;-24
2023/04/12 07:14:49;;;;;;;54.10;24.20;;;;;;;8.01;92.78;97847.09;105633;1257;73467;-21
2023/04/12 07:17:20;;;;;;;59.30;30.20;;;;;;;8.03;92.09;97849.85;105646;1261;75901;-21
2023/04/12 07:19:49;;;;;;;50.30;26.50;;;;;;;7.80;93.00;97847.21;105629;1261;72928;-21
2023/04/12 07:22:25;;;;;;;37.50;18.40;;;;;;;7.46;93.62;97846.92;105597;1257;63364;-21
2023/04/12 07:24:56;;;;;;;25.10;13.10;;;;;;;7.91;93.57;97845.54;105626;1261;61512;-23
2023/04/12 07:27:25;;;;;;;40.10;23.30;;;;;;;8.01;91.72;97841.39;105541;1257;74554;-22
2023/04/12 07:29:56;;;;;;;45.50;29.40;;;;;;;7.71;91.87;97839.52;105574;1257;75350;-22
2023/04/12 07:32:26;;;;;;;24.50;15.00;;;;;;;7.38;93.75;97838.07;105628;1257;74214;-23
2023/04/12 07:34:56;;;;;;;26.90;15.60;;;;;;;7.46;94.09;97831.04;105613;1257;61903;-23
2023/04/12 07:37:26;;;;;;;46.10;19.60;;;;;;;7.77;92.46;97828.29;105635;1257;61864;-22
2023/04/12 07:39:55;;;;;;;53.00;21.20;;;;;;;7.65;93.23;97831.57;105647;1257;74512;-23
2023/04/12 07:42:23;;;;;;;29.40;13.10;;;;;;;7.72;93.23;97830.15;105607;1257;75710;-22
2023/04/12 07:44:52;;;;;;;42.90;18.50;;;;;;;7.82;93.29;97830.82;105512;1262;73206;-24
2023/04/12 07:47:21;;;;;;;40.20;18.60;;;;;;;8.01;91.66;97832.92;105487;1257;61364;-23
2023/04/12 07:49:50;;;;;;;72.20;33.50;;;;;;;7.84;92.06;97828.86;105518;1261;61652;-23
2023/04/12 07:52:19;;;;;;;64.40;32.30;;;;;;;7.99;91.62;97826.84;105500;1257;73745;-23
2023/04/12 07:54:56;;;;;;;51.60;30.60;;;;;;;7.75;92.98;97825.02;105496;1257;76059;-22
2023/04/12 07:57:25;;;;;;;21.90;11.10;;;;;;;7.96;92.83;97826.29;105361;1263;74194;-23
2023/04/12 07:59:55;;;;;;;11.20;7.10;;;;;;;7.97;90.93;97821.18;105612;1263;61954;-23
2023/04/12 08:02:24;;;;;;;37.00;14.40;;;;;;;7.84;91.06;97823.34;105613;1260;61192;-22
2023/04/12 08:04:53;;;;;;;22.40;13.80;;;;;;;7.55;92.99;97823.68;105681;1257;74511;-22
2023/04/12 08:07:26;;;;;;;29.10;18.30;;;;;;;7.68;92.99;97823.02;105641;1258;74816;-21
2023/04/12 08:09:56;;;;;;;26.60;17.30;;;;;;;8.16;91.96;97819.66;105611;1257;74354;-22
2023/04/12 08:12:25;;;;;;;35.30;24.20;;;;;;;8.37;89.78;97818.44;105649;1257;61813;-21
2023/04/12 08:15:03;;;;;;;47.80;30.70;;;;;;;8.16;90.22;97821.14;105373;1262;61579;-22
2023/04/12 08:17:32;;;;;;;34.20;20.60;;;;;;;7.99;91.68;97819.48;105570;1257;75615;-21
2023/04/12 08:20:03;;;;;;;17.00;10.10;;;;;;;7.77;92.43;97815.01;105674;1260;74974;-21
2023/04/12 08:22:36;;;;;;;35.80;20.00;;;;;;;8.17;91.52;97811.27;105542;1257;74216;-22
2023/04/12 08:25:08;;;;;;;30.80;18.00;;;;;;;8.31;90.18;97810.67;105543;1257;61653;-21
2023/04/12 08:27:41;;;;;;;24.50;17.30;;;;;;;7.96;90.73;97809.85;105620;1258;62385;-22
2023/04/12 08:30:10;;;;;;;20.40;14.30;;;;;;;7.83;92.66;97809.27;105296;1257;74618;-21
2023/04/12 08:32:40;;;;;;;21.30;15.80;;;;;;;7.86;92.64;97809.19;105536;1258;75833;-21
2023/04/12 08:35:09;;;;;;;32.70;22.40;;;;;;;8.54;90.73;97809.25;105572;1261;72185;-22
2023/04/12 08:37:38;;;;;;;41.90;27.60;;;;;;;8.70;88.39;97804.98;105627;1258;61958;-22
2023/04/12 08:40:08;;;;;;;20.10;13.90;;;;;;;8.60;88.13;97805.24;105523;1260;61633;-21
2023/04/12 08:42:37;;;;;;;23.20;14.10;;;;;;;8.31;90.16;97802.77;105590;1262;74501;-21
2023/04/12 08:45:07;;;;;;;41.80;22.30;;;;;;;8.08;90.74;97802.52;105642;1257;75637;-21
2023/04/12 08:47:37;;;;;;;40.90;26.30;;;;;;;8.54;89.50;97803.70;105476;1257;74871;-22
2023/04/12 08:50:12;;;;;;;22.50;15.60;;;;;;;8.51;88.52;97803.17;105573;1256;61671;-21
2023/04/12 08:52:41;;;;;;;26.30;18.70;;;;;;;8.04;89.33;97798.21;105515;1262;62328;-21
2023/04/12 08:55:11;;;;;;;21.90;14.00;;;;;;;7.89;90.61;97794.59;105629;1257;74564;-21
2023/04/12 08:57:40;;;;;;;22.00;13.20;;;;;;;7.86;91.36;97794.98;105654;1260;74973;-21
2023/04/12 09:00:10;;;;;;;35.20;21.60;;;;;;;8.35;89.92;97791.94;105620;1263;72992;-22
2023/04/12 09:02:45;;;;;;;20.60;13.80;;;;;;;8.50;88.97;97792.66;105474;1256;61111;-21
2023/04/12 09:05:15;;;;;;;28.60;18.50;;;;;;;8.17;89.22;97785.83;105330;1257;61045;-21
2023/04/12 09:07:44;;;;;;;12.50;7.70;;;;;;;8.10;90.35;97788.87;105595;1257;74735;-21
2023/04/12 09:10:29;;;;;;;13.10;11.50;;;;;;;8.02;90.80;97786.32;105706;1257;75867;-21
2023/04/12 09:13:00;;;;;;;41.20;25.00;;;;;;;8.10;90.47;97786.98;105609;1256;74756;-22
2023/04/12 09:15:29;;;;;;;25.10;12.80;;;;;;;8.09;89.46;97778.96;105621;1260;62239;-21
2023/04/12 09:18:10;;;;;;;25.30;13.90;;;;;;;7.87;90.64;97775.02;105685;1257;61167;-21
2023/04/12 09:20:39;;;;;;;36.30;20.30;;;;;;;8.10;90.53;97775.44;105649;1257;73702;-22
2023/04/12 09:23:21;;;;;;;28.40;18.50;;;;;;;8.06;90.67;97773.73;105651;1257;75909;-22
2023/04/12 09:25:51;;;;;;;11.50;7.90;;;;;;;8.54;89.79;97777.94;105524;1256;74114;-23
2023/04/12 09:28:24;;;;;;;15.00;11.00;;;;;;;9.10;85.90;97782.45;105589;1257;61670;-22
2023/04/12 09:30:55;;;;;;;10.60;7.50;;;;;;;9.04;85.31;97785.41;105619;1257;62121;-22
2023/04/12 09:33:44;;;;;;;6.50;5.10;;;;;;;8.72;86.65;97782.71;105392;1262;72729;-23
2023/04/12 09:36:15;;;;;;;9.10;4.90;;;;;;;8.59;87.49;97781.83;105505;1257;75925;-21
2023/04/12 09:38:59;;;;;;;39.70;18.40;;;;;;;8.80;86.68;97782.32;105524;1258;73171;-22
2023/04/12 09:41:30;;;;;;;18.20;9.30;;;;;;;8.85;86.16;97782.40;105522;1256;61485;-22
2023/04/12 09:43:59;;;;;;;21.00;9.30;;;;;;;8.81;85.94;97782.04;105584;1257;61914;-22
2023/04/12 09:46:28;;;;;;;7.70;5.20;;;;;;;8.65;85.91;97782.17;105590;1257;74582;-22
2023/04/12 09:48:57;;;;;;;9.50;5.90;;;;;;;8.70;86.22;97779.27;105549;1258;75495;-22
2023/04/12 09:51:35;;;;;;;4.40;3.20;;;;;;;8.51;87.12;97779.60;105397;1257;74130;-22
2023/04/12 09:54:05;;;;;;;11.20;6.20;;;;;;;9.04;85.13;97778.67;105239;1257;61105;-23
2023/04/12 09:56:35;;;;;;;5.50;3.60;;;;;;;9.18;83.58;97773.37;105182;1262;61280;-22
2023/04/12 09:59:09;;;;;;;9.90;6.30;;;;;;;8.72;85.14;97769.02;105385;1257;74493;-22
2023/04/12 10:01:38;;;;;;;12.50;7.70;;;;;;;8.73;85.62;97769.27;105580;1257;74944;-22
2023/04/12 10:04:08;;;;;;;22.20;12.50;;;;;;;8.58;86.47;97768.59;105399;1257;74237;-22
2023/04/12 10:06:40;;;;;;;9.20;5.00;;;;;;;8.77;86.73;97765.31;105311;1257;63268;-22
2023/04/12 10:09:09;;;;;;;7.60;4.70;;;;;;;9.16;84.12;97763.19;105537;1260;61892;-22
2023/04/12 10:11:40;;;;;;;8.50;5.10;;;;;;;9.29;82.90;97761.75;105217;1258;75436;-22
2023/04/12 10:14:10;;;;;;;9.80;6.10;;;;;;;9.47;82.26;97760.55;105636;1258;75520;-22
2023/04/12 10:16:44;;;;;;;19.50;12.20;;;;;;;9.31;83.22;97763.23;105549;1257;74238;-22
2023/04/12 10:19:12;;;;;;;7.90;5.90;;;;;;;9.04;84.95;97762.42;105457;1257;61021;-22
2023/04/12 10:21:41;;;;;;;10.70;7.90;;;;;;;8.53;87.23;97757.44;105506;1261;61866;-22
2023/04/12 10:24:16;;;;;;;6.00;4.50;;;;;;;8.81;86.36;97761.41;105406;1257;75393;-22
2023/04/12 10:26:45;;;;;;;9.50;5.10;;;;;;;9.17;84.23;97760.64;105351;1257;76389;-22
2023/04/12 10:29:28;;;;;;;18.70;13.20;;;;;;;9.32;83.75;97759.41;105203;1257;74187;-22
2023/04/12 10:32:17;;;;;;;22.10;15.90;;;;;;;8.99;84.68;97763.25;105252;1257;61158;-23
2023/04/12 10:34:56;;;;;;;13.30;9.30;;;;;;;8.87;85.40;97761.10;105593;1260;61602;-23
2023/04/12 10:38:00;;;;;;;12.20;7.60;;;;;;;8.74;85.24;97759.02;105198;1263;75555;-23
2023/04/12 10:46:49;;;;;;;13.40;9.70;;;;;;;9.03;84.51;97758.55;103587;1280;615341;-23
2023/04/12 10:49:17;;;;;;;52.00;27.90;;;;;;;8.94;84.78;97756.60;105144;1264;61888;-23
2023/04/12 10:52:04;;;;;;;14.90;10.00;;;;;;;8.65;85.95;97754.08;105148;1268;61615;-24
2023/04/12 10:54:34;;;;;;;34.70;20.10;;;;;;;8.67;85.79;97744.93;105172;1264;73718;-24
2023/04/12 10:57:02;;;;;;;31.90;16.90;;;;;;;8.82;85.07;97744.91;105163;1264;75677;-26
2023/04/12 10:59:49;;;;;;;42.70;20.20;;;;;;;8.81;84.97;97741.73;103244;1269;2353142;-23
2023/04/12 11:02:17;;;;;;;;;;;;;;;8.34;86.94;97738.84;105232;1264;61788;-24
2023/04/12 11:05:09;;;;;;;25.90;14.90;;;;;;;8.44;87.60;97744.13;105235;1264;61048;-24
2023/04/12 11:08:20;;;;;;;19.00;11.50;;;;;;;8.60;87.70;97746.11;104910;1264;74523;-24
2023/04/12 11:11:18;;;;;;;17.00;10.90;;;;;;;8.82;86.45;97748.06;106013;1251;75893;-24
2023/04/12 11:13:45;;;;;;;43.40;29.60;;;;;;;9.21;84.67;97750.05;105813;1250;73761;-25
2023/04/12 11:16:14;;;;;;;13.60;9.40;;;;;;;9.12;84.86;97753.12;106040;1251;61505;-25
2023/04/12 11:18:45;;;;;;;23.70;13.80;;;;;;;8.89;85.67;97750.02;106033;1257;61668;-25
2023/04/12 11:21:13;;;;;;;32.90;17.20;;;;;;;9.04;85.58;97752.36;106040;1251;75242;-25
2023/04/12 11:23:44;;;;;;;41.40;20.10;;;;;;;9.03;85.34;97754.90;105943;1251;75918;-24
2023/04/12 11:26:14;;;;;;;19.40;9.30;;;;;;;9.42;83.82;97755.10;105938;1251;74112;-26
2023/04/12 11:28:41;;;;;;;38.40;15.50;;;;;;;9.18;83.69;97755.41;105761;1251;61902;-24
2023/04/12 11:31:10;;;;;;;14.00;6.70;;;;;;;9.02;84.07;97757.70;106002;1257;61733;-24
2023/04/12 11:33:38;;;;;;;7.30;4.80;;;;;;;9.24;83.84;97753.10;105898;1257;74365;-25
2023/04/12 11:36:11;;;;;;;12.20;6.50;;;;;;;9.14;83.63;97751.61;106013;1256;75938;-25
2023/04/12 11:38:38;;;;;;;40.30;19.80;;;;;;;8.91;85.24;97748.56;105745;1256;73041;-25
2023/04/12 11:41:07;;;;;;;61.90;29.50;;;;;;;9.18;84.51;97752.95;105541;1251;61096;-25
2023/04/12 11:43:37;;;;;;;26.60;14.60;;;;;;;9.43;84.17;97754.30;105891;1256;62064;-25
2023/04/12 11:46:05;;;;;;;29.10;16.30;;;;;;;9.63;82.08;97753.85;105958;1251;74591;-24
2023/04/12 11:48:33;;;;;;;11.60;6.90;;;;;;;9.68;82.32;97754.90;105967;1251;75651;-24
2023/04/12 11:51:17;;;;;;;43.00;21.50;;;;;;;9.15;82.85;97750.45;106021;1257;74119;-25
2023/04/12 11:53:45;;;;;;;;;;;;;;;9.10;85.23;97755.09;105836;1251;61875;-25
2023/04/12 11:56:12;;;;;;;23.30;12.60;;;;;;;9.56;82.61;97754.16;106004;1256;61359;-26
2023/04/12 11:58:40;;;;;;;15.40;8.00;;;;;;;9.42;82.95;97752.67;105955;1251;74504;-26
2023/04/12 12:01:07;;;;;;;41.20;23.60;;;;;;;9.14;83.91;97753.34;105821;1255;75909;-26
2023/04/12 12:11:12;;;;;;;27.50;11.30;;;;;;;9.83;82.02;97749.80;102648;1295;600235;-25
2023/04/12 12:13:51;;;;;;;33.10;13.90;;;;;;;10.07;80.83;97746.35;104910;1266;61748;-24
2023/04/12 12:16:27;;;;;;;44.40;18.10;;;;;;;9.77;81.44;97749.48;104813;1267;61825;-23
2023/04/12 12:19:03;;;;;;;51.80;21.00;;;;;;;9.12;83.58;97748.52;104831;1267;73692;-23
2023/04/12 12:21:31;;;;;;;27.20;11.50;;;;;;;9.29;84.52;97750.45;104841;1266;74599;-24
2023/04/12 12:24:01;;;;;;;15.90;8.00;;;;;;;9.31;83.73;97745.48;103276;1267;2189343;-25